Airfield :
LOGIN :

Register | Disclaimer

   EN    FR    IT 

 










Legend :    VFR   Marginal VFR   IFR   Intensive IFR   Very Intensive IFR
Visi :
Ceiling :
>= 8 km
>= 3000ft
5 to 8 km
1000 to 3000 ft
1500m to 5 km
500 to 1000 ft
800 to 1500m
200 to 500 ft
< 800m
< 200 ft
Symbols :   Thunderstorms  Fog  Heavy snow  Heavy precipitations  Wind > 20 kt
SIGMETs :     Misc.  Thunderstorms  Icing  Turbulence  Mountain Waves  Volcanic Ashes







- Airport Elevation : 240 ft
- IATA code : VLC


LEVC - Valencia Manises

CURRENT METAR :
  • 250330Z 20003KT 170V230 9999 FEW050 13/10 Q1009 NOSIG

EXPIRED METARs :
  • 250300Z 30003KT 9999 FEW050 12/10 Q1009 NOSIG
  • 250230Z 29002KT 9999 FEW050 13/10 Q1009 NOSIG
  • 250200Z VRB02KT 9999 FEW040 13/10 Q1009 NOSIG
  • 250130Z 29002KT 9999 FEW040 14/10 Q1009 NOSIG
  • 250100Z VRB01KT 9999 FEW040 15/10 Q1009 NOSIG

TAF TAF LEVC
Valid from the 25 at 00:00 until the 26 at 00:00 UTC


242300Z 2500/2524 VRB05KT 9999 SCT050 TX22/2512Z TN12/2506Z
BECMG 2507/2509 25015G25KT
PROB30
TEMPO 2508/2511 RA BKN040
TEMPO 2511/2513 25015G30KT
BECMG 2518/2520 27010KT 9999 FEW030
No reported NOTAMs for that airfield.



MET'MAP, your aeronautical weather chart ! - Copyright ORBIFLY December 2007 - Disclaimer

ORBIFLY MET'MAP TEAM :

Programming & Development : Alexandra Zaïnal
Concept & Development : Baudouin d'Aumeries
Co-Development & Prog : Marc-Olivier Méhu
Technical & hardware support : Manuel Goepfert

Contact : metmap@orbifly.com




SOURCES & CREDITS :

   NOAA